Riverton, Indiana
Current Conditions -  °F | °C
As of 9:15 PM on Thursday 20 Nov 2014 (Local Time) from KRSV Reporting Station
Clear Clear  
Wind Chill: 14°   Ceiling: Unl
Heat Index: 22°   Visibility: 10mi
Dew Point: 18°   Wind: 6mph
Humidity: 87%   Direction: 270°W
Pressure: 30.29"   Gusts: NA
Location:  39.0138°N, 87.523°W
Report Text: KRSV 210215Z AUTO 27005KT 10SM CLR M06/M08 A3029 RMK AO2 T10571076
Loading
Personal Weather Stations






























Interactive Weather Map New forecast layout! Learn more

10-Day Weather Forecast

Advertisements
Track Severe Weather on mobile